createdAt,value
2023-04-11T00:03:39.866Z,11.34
2023-04-11T00:08:44.290Z,11.32
2023-04-11T00:13:47.633Z,11.35
2023-04-11T00:18:49.624Z,11.43
2023-04-11T00:23:54.345Z,11.49
2023-04-11T00:28:56.206Z,11.53
2023-04-11T00:33:58.273Z,11.59
2023-04-11T00:39:01.750Z,11.46
2023-04-11T00:44:03.753Z,11.39
2023-04-11T00:49:05.436Z,11.53
2023-04-11T00:54:10.259Z,11.69
2023-04-11T00:59:12.277Z,11.77
2023-04-11T01:04:14.420Z,11.81
2023-04-11T01:09:16.876Z,11.80
2023-04-11T01:14:19.065Z,11.82
2023-04-11T01:19:21.392Z,11.92
2023-04-11T01:24:23.045Z,11.86
2023-04-11T01:29:24.740Z,11.75
2023-04-11T01:34:28.301Z,11.89
2023-04-11T01:39:30.547Z,11.97
2023-04-11T01:44:33.090Z,11.96
2023-04-11T01:49:38.279Z,11.98
2023-04-11T01:54:39.911Z,12.03
2023-04-11T01:59:41.673Z,12.05
2023-04-11T02:04:43.661Z,12.03
2023-04-11T02:09:45.452Z,12.09
2023-04-11T02:14:47.004Z,12.12
2023-04-11T02:19:48.561Z,12.17
2023-04-11T02:24:51.293Z,12.17
2023-04-11T02:29:53.030Z,12.05
2023-04-11T02:34:55.894Z,12.10
2023-04-11T02:39:58.218Z,11.87
2023-04-11T02:45:00.067Z,11.79
2023-04-11T02:50:03.771Z,11.79
2023-04-11T02:55:11.521Z,11.83
2023-04-11T03:00:13.198Z,11.94
2023-04-11T03:05:21.678Z,11.97
2023-04-11T03:10:25.946Z,11.87
2023-04-11T03:15:28.414Z,11.76
2023-04-11T03:20:30.147Z,11.67
2023-04-11T03:25:31.742Z,11.58
2023-04-11T03:30:40.270Z,11.53
2023-04-11T03:35:43.160Z,11.60
2023-04-11T03:40:44.815Z,11.51
2023-04-11T03:45:51.675Z,11.52
2023-04-11T03:51:07.639Z,11.50
2023-04-11T03:56:15.104Z,11.56
2023-04-11T04:01:16.880Z,11.67
2023-04-11T04:06:19.617Z,11.79
2023-04-11T04:11:22.536Z,11.93
2023-04-11T04:16:25.023Z,11.89
2023-04-11T04:21:32.417Z,11.85
2023-04-11T04:26:34.013Z,11.75
2023-04-11T04:31:50.592Z,11.74
2023-04-11T04:36:59.427Z,11.78
2023-04-11T04:42:11.196Z,11.75
2023-04-11T04:47:15.528Z,11.75
2023-04-11T04:52:17.252Z,11.65
2023-04-11T04:57:19.088Z,11.36
2023-04-11T05:02:21.754Z,11.42
2023-04-11T05:07:26.424Z,11.47
2023-04-11T05:12:28.434Z,11.51
2023-04-11T05:17:35.947Z,11.51
2023-04-11T05:22:38.613Z,11.48
2023-04-11T05:27:40.547Z,11.72
2023-04-11T05:32:43.563Z,11.93
2023-04-11T05:37:46.088Z,11.97
2023-04-11T05:42:47.687Z,11.93
2023-04-11T05:47:50.303Z,11.79
2023-04-11T05:52:52.056Z,11.54
2023-04-11T05:57:53.642Z,11.45
2023-04-11T06:02:55.483Z,11.27
2023-04-11T06:07:58.674Z,11.18
2023-04-11T06:13:00.515Z,11.20
2023-04-11T06:18:02.159Z,11.24
2023-04-11T06:23:04.044Z,11.35
2023-04-11T06:28:05.639Z,11.47
2023-04-11T06:33:07.306Z,11.56
2023-04-11T06:38:10.321Z,11.62
2023-04-11T06:43:11.965Z,11.63
2023-04-11T06:48:13.608Z,11.69
2023-04-11T06:53:15.145Z,11.71
2023-04-11T06:58:17.152Z,11.73
2023-04-11T07:03:19.875Z,11.69
2023-04-11T07:08:22.083Z,11.73
2023-04-11T07:13:23.769Z,11.71
2023-04-11T07:18:27.297Z,11.70
2023-04-11T07:23:28.885Z,11.62
2023-04-11T07:28:31.413Z,11.53
2023-04-11T07:33:32.988Z,11.36
2023-04-11T07:38:34.671Z,11.37
2023-04-11T07:43:36.518Z,11.33
2023-04-11T07:48:38.358Z,11.20
2023-04-11T07:53:40.259Z,11.10
2023-04-11T07:58:42.047Z,10.60
2023-04-11T08:03:43.704Z,10.43
2023-04-11T08:08:46.336Z,10.41
2023-04-11T08:13:47.981Z,10.33
2023-04-11T08:18:50.837Z,10.36
2023-04-11T08:23:52.576Z,10.33
2023-04-11T08:28:54.117Z,10.31
2023-04-11T08:33:58.530Z,10.34
2023-04-11T08:39:02.173Z,10.23
2023-04-11T08:44:03.749Z,10.24
2023-04-11T08:49:05.407Z,10.37
2023-04-11T08:54:07.054Z,10.28
2023-04-11T08:59:08.659Z,10.39
2023-04-11T09:04:11.387Z,10.49
2023-04-11T09:09:28.027Z,10.54
2023-04-11T09:14:30.197Z,10.53
2023-04-11T09:19:32.635Z,10.60
2023-04-11T09:24:35.744Z,10.64
2023-04-11T09:29:38.186Z,10.63
2023-04-11T09:34:42.389Z,10.68
2023-04-11T09:39:44.883Z,10.75
2023-04-11T09:44:46.554Z,10.78
2023-04-11T09:49:48.652Z,10.87
2023-04-11T09:54:50.779Z,10.83
2023-04-11T09:59:52.563Z,10.95
2023-04-11T10:04:54.718Z,10.96
2023-04-11T10:09:56.664Z,11.00
2023-04-11T10:15:05.461Z,11.07
2023-04-11T10:20:27.212Z,11.05
2023-04-11T10:25:28.888Z,11.01
2023-04-11T10:30:39.812Z,11.10
2023-04-11T10:36:02.885Z,11.11
2023-04-11T10:41:18.479Z,11.14
2023-04-11T10:46:21.640Z,11.27
2023-04-11T10:51:24.688Z,11.45
2023-04-11T10:56:48.875Z,11.48
2023-04-11T11:01:57.199Z,11.50
2023-04-11T11:07:04.121Z,11.69
2023-04-11T11:12:07.500Z,11.97
2023-04-11T11:17:10.866Z,11.94
2023-04-11T11:22:16.438Z,11.82
2023-04-11T11:27:22.910Z,11.88
2023-04-11T11:32:28.264Z,12.22
2023-04-11T11:37:30.271Z,12.19
2023-04-11T11:42:31.824Z,12.20
2023-04-11T11:47:41.461Z,12.33
2023-04-11T11:52:44.404Z,12.25
2023-04-11T11:57:46.825Z,12.60
2023-04-11T12:02:48.599Z,12.77
2023-04-11T12:07:54.403Z,12.95
2023-04-11T12:12:56.145Z,13.22
2023-04-11T12:17:57.986Z,12.95
2023-04-11T12:23:00.455Z,13.05
2023-04-11T12:28:02.082Z,13.68
2023-04-11T12:33:03.937Z,12.94
2023-04-11T12:38:06.533Z,13.25
2023-04-11T12:43:08.167Z,13.51
2023-04-11T12:48:10.379Z,13.81
2023-04-11T12:53:12.107Z,14.13
2023-04-11T12:58:13.786Z,14.17
2023-04-11T13:03:16.291Z,13.74
2023-04-11T13:08:18.382Z,13.46
2023-04-11T13:13:20.219Z,14.00
2023-04-11T13:18:21.871Z,14.44
2023-04-11T13:23:23.635Z,14.39
2023-04-11T13:28:25.240Z,14.61
2023-04-11T13:33:27.165Z,14.94
2023-04-11T13:38:29.005Z,15.32
2023-04-11T13:43:30.811Z,15.35
2023-04-11T13:48:32.469Z,15.08
2023-04-11T13:53:34.182Z,15.25
2023-04-11T13:58:36.864Z,14.76
2023-04-11T14:03:39.245Z,14.86
2023-04-11T14:08:41.232Z,14.69
2023-04-11T14:13:42.882Z,14.16
2023-04-11T14:18:44.738Z,13.93
2023-04-11T14:23:46.320Z,14.09
2023-04-11T14:39:39.956Z,14.91
2023-04-11T14:44:41.587Z,14.65
2023-04-11T14:49:43.352Z,14.15
2023-04-11T14:54:44.993Z,13.88
2023-04-11T14:59:46.635Z,13.76
2023-04-11T15:04:48.299Z,13.73
2023-04-11T15:09:49.930Z,13.81
2023-04-11T15:14:51.546Z,13.71
2023-04-11T15:19:53.224Z,13.64
2023-04-11T15:24:54.852Z,13.63
2023-04-11T15:29:59.472Z,13.36
2023-04-11T15:35:01.477Z,12.88
2023-04-11T15:40:06.040Z,12.75
2023-04-11T15:45:07.989Z,12.75
2023-04-11T15:50:09.868Z,12.98
2023-04-11T15:55:11.441Z,13.05
2023-04-11T16:00:14.039Z,13.37
2023-04-11T16:05:16.015Z,13.59
2023-04-11T16:10:17.863Z,13.85
2023-04-11T16:15:19.729Z,13.66
2023-04-11T16:20:21.600Z,13.70
2023-04-11T16:25:23.381Z,13.36
2023-04-11T16:30:26.272Z,13.25
2023-04-11T16:35:27.953Z,13.17
2023-04-11T16:42:56.752Z,13.16
2023-04-11T16:47:58.488Z,13.12
2023-04-11T16:53:00.138Z,12.99
2023-04-11T16:58:02.014Z,12.92
2023-04-11T17:03:03.880Z,13.00
2023-04-11T17:08:05.543Z,13.06
2023-04-11T17:13:07.163Z,13.06
2023-04-11T17:18:08.846Z,13.11
2023-04-11T17:23:10.649Z,13.09
2023-04-11T17:28:12.375Z,13.04
2023-04-11T17:33:17.056Z,12.80
2023-04-11T17:38:18.760Z,12.84
2023-04-11T17:43:20.483Z,12.78
2023-04-11T17:48:23.044Z,12.59
2023-04-11T17:53:24.642Z,12.36
2023-04-11T17:58:26.424Z,12.22
2023-04-11T18:03:28.525Z,11.96
2023-04-11T18:08:43.256Z,11.50
2023-04-11T18:13:51.493Z,11.16
2023-04-11T18:18:53.225Z,10.89
2023-04-11T18:23:55.051Z,10.67
2023-04-11T18:28:56.970Z,10.43
2023-04-11T18:33:59.289Z,10.14
2023-04-11T18:39:01.529Z,9.83
2023-04-11T18:44:04.353Z,9.56
2023-04-11T18:49:08.002Z,9.41
2023-04-11T18:54:09.860Z,9.44
2023-04-11T18:59:13.222Z,9.28
2023-04-11T19:04:17.854Z,9.11
2023-04-11T19:09:21.605Z,9.08
2023-04-11T19:14:24.427Z,9.01
2023-04-11T19:19:26.107Z,8.99
2023-04-11T19:24:27.807Z,8.93
2023-04-11T19:29:29.851Z,8.73
2023-04-11T19:34:34.908Z,8.47
2023-04-11T19:39:38.953Z,8.35
2023-04-11T19:44:40.692Z,8.33
2023-04-11T19:49:42.584Z,8.33
2023-04-11T19:54:45.268Z,8.39
2023-04-11T19:59:47.178Z,8.27
2023-04-11T20:04:49.483Z,8.00
2023-04-11T20:09:51.684Z,7.88
2023-04-11T20:14:53.334Z,7.74
2023-04-11T20:19:55.601Z,7.65
2023-04-11T20:24:57.767Z,7.62
2023-04-11T20:30:00.566Z,7.58
2023-04-11T20:35:02.608Z,7.62
2023-04-11T20:40:08.074Z,7.66
2023-04-11T20:45:10.862Z,7.42
2023-04-11T20:50:14.354Z,7.30
2023-04-11T20:55:16.134Z,6.97
2023-04-11T21:00:18.577Z,6.84
2023-04-11T21:05:25.394Z,6.63
2023-04-11T21:10:27.199Z,6.56
2023-04-11T21:15:28.794Z,6.79
2023-04-11T21:20:30.408Z,6.82
2023-04-11T21:25:32.091Z,6.91
2023-04-11T21:30:33.767Z,6.95
2023-04-11T21:35:35.451Z,6.86
2023-04-11T21:40:37.163Z,6.82
2023-04-11T21:45:39.010Z,6.74
2023-04-11T21:50:40.706Z,6.75
2023-04-11T21:55:46.592Z,6.64
2023-04-11T22:00:48.259Z,6.58
2023-04-11T22:05:52.501Z,6.55
2023-04-11T22:10:54.568Z,6.44
2023-04-11T22:16:05.450Z,6.27
2023-04-11T22:21:09.482Z,6.13
2023-04-11T22:26:11.027Z,6.21
2023-04-11T22:31:13.634Z,6.20
2023-04-11T22:36:16.079Z,6.33
2023-04-11T22:41:17.677Z,6.13
2023-04-11T22:46:19.357Z,6.22
2023-04-11T22:51:21.858Z,6.48
2023-04-11T22:56:23.436Z,6.65
2023-04-11T23:01:25.195Z,6.59
2023-04-11T23:06:27.299Z,6.55
2023-04-11T23:11:28.880Z,6.47
2023-04-11T23:16:30.782Z,6.32
2023-04-11T23:21:33.178Z,6.20
2023-04-11T23:26:34.898Z,6.19
2023-04-11T23:31:36.543Z,6.19
2023-04-11T23:36:38.711Z,6.17
2023-04-11T23:41:41.498Z,6.20
2023-04-11T23:46:43.286Z,6.31
2023-04-11T23:51:44.859Z,6.42
2023-04-11T23:56:46.590Z,6.53
